sensor_id;sensor_type;location;lat;lon;timestamp;P1;durP1;ratioP1;P2;durP2;ratioP2
16878;SDS011;8556;52.218;9.884;2023-07-13T00:01:12;5.45;;;3.50;;
16878;SDS011;8556;52.218;9.884;2023-07-13T00:03:40;5.15;;;3.08;;
16878;SDS011;8556;52.218;9.884;2023-07-13T00:06:07;6.38;;;3.10;;
16878;SDS011;8556;52.218;9.884;2023-07-13T00:08:34;6.20;;;3.85;;
16878;SDS011;8556;52.218;9.884;2023-07-13T00:11:02;4.20;;;2.88;;
16878;SDS011;8556;52.218;9.884;2023-07-13T00:13:30;4.95;;;3.10;;
16878;SDS011;8556;52.218;9.884;2023-07-13T00:15:57;5.63;;;3.20;;
16878;SDS011;8556;52.218;9.884;2023-07-13T00:18:26;6.75;;;3.53;;
16878;SDS011;8556;52.218;9.884;2023-07-13T00:20:56;5.57;;;3.10;;
16878;SDS011;8556;52.218;9.884;2023-07-13T00:23:29;3.72;;;2.92;;
16878;SDS011;8556;52.218;9.884;2023-07-13T00:25:58;4.47;;;2.80;;
16878;SDS011;8556;52.218;9.884;2023-07-13T00:28:24;5.20;;;3.38;;
16878;SDS011;8556;52.218;9.884;2023-07-13T00:30:51;6.97;;;3.40;;
16878;SDS011;8556;52.218;9.884;2023-07-13T00:33:19;5.43;;;3.30;;
16878;SDS011;8556;52.218;9.884;2023-07-13T00:35:46;6.18;;;3.63;;
16878;SDS011;8556;52.218;9.884;2023-07-13T00:38:14;4.72;;;3.20;;
16878;SDS011;8556;52.218;9.884;2023-07-13T00:40:42;4.03;;;3.53;;
16878;SDS011;8556;52.218;9.884;2023-07-13T00:43:09;4.70;;;3.10;;
16878;SDS011;8556;52.218;9.884;2023-07-13T00:48:41;5.78;;;3.50;;
16878;SDS011;8556;52.218;9.884;2023-07-13T00:51:10;5.75;;;3.13;;
16878;SDS011;8556;52.218;9.884;2023-07-13T00:53:39;5.07;;;3.75;;
16878;SDS011;8556;52.218;9.884;2023-07-13T00:56:06;6.25;;;3.80;;
16878;SDS011;8556;52.218;9.884;2023-07-13T00:58:33;4.97;;;3.20;;
16878;SDS011;8556;52.218;9.884;2023-07-13T01:01:01;6.63;;;3.60;;
16878;SDS011;8556;52.218;9.884;2023-07-13T01:03:28;3.53;;;3.17;;
16878;SDS011;8556;52.218;9.884;2023-07-13T01:05:55;4.35;;;3.47;;
16878;SDS011;8556;52.218;9.884;2023-07-13T01:08:22;6.57;;;3.50;;
16878;SDS011;8556;52.218;9.884;2023-07-13T01:10:54;4.50;;;3.22;;
16878;SDS011;8556;52.218;9.884;2023-07-13T01:13:23;6.18;;;3.10;;
16878;SDS011;8556;52.218;9.884;2023-07-13T01:15:50;4.97;;;3.38;;
16878;SDS011;8556;52.218;9.884;2023-07-13T01:18:19;4.75;;;3.30;;
16878;SDS011;8556;52.218;9.884;2023-07-13T01:20:51;5.10;;;3.17;;
16878;SDS011;8556;52.218;9.884;2023-07-13T01:23:19;4.70;;;3.22;;
16878;SDS011;8556;52.218;9.884;2023-07-13T01:25:47;5.03;;;3.55;;
16878;SDS011;8556;52.218;9.884;2023-07-13T01:28:14;3.78;;;3.17;;
16878;SDS011;8556;52.218;9.884;2023-07-13T01:30:41;4.50;;;3.40;;
16878;SDS011;8556;52.218;9.884;2023-07-13T01:33:10;4.05;;;3.63;;
16878;SDS011;8556;52.218;9.884;2023-07-13T01:35:38;5.60;;;3.83;;
16878;SDS011;8556;52.218;9.884;2023-07-13T01:38:06;5.95;;;3.40;;
16878;SDS011;8556;52.218;9.884;2023-07-13T01:40:34;5.43;;;3.20;;
16878;SDS011;8556;52.218;9.884;2023-07-13T01:43:01;7.90;;;3.80;;
16878;SDS011;8556;52.218;9.884;2023-07-13T01:45:28;6.85;;;3.72;;
16878;SDS011;8556;52.218;9.884;2023-07-13T01:47:55;3.85;;;3.42;;
16878;SDS011;8556;52.218;9.884;2023-07-13T01:50:23;4.40;;;3.35;;
16878;SDS011;8556;52.218;9.884;2023-07-13T01:52:49;4.50;;;3.50;;
16878;SDS011;8556;52.218;9.884;2023-07-13T01:55:18;4.75;;;3.88;;
16878;SDS011;8556;52.218;9.884;2023-07-13T01:57:45;5.68;;;3.53;;
16878;SDS011;8556;52.218;9.884;2023-07-13T02:00:13;4.80;;;3.47;;
16878;SDS011;8556;52.218;9.884;2023-07-13T02:02:40;5.55;;;3.50;;
16878;SDS011;8556;52.218;9.884;2023-07-13T02:05:07;4.10;;;3.42;;
16878;SDS011;8556;52.218;9.884;2023-07-13T02:07:34;4.65;;;3.50;;
16878;SDS011;8556;52.218;9.884;2023-07-13T02:10:02;6.05;;;3.20;;
16878;SDS011;8556;52.218;9.884;2023-07-13T02:12:30;6.07;;;3.60;;
16878;SDS011;8556;52.218;9.884;2023-07-13T02:14:57;5.95;;;3.60;;
16878;SDS011;8556;52.218;9.884;2023-07-13T02:17:24;6.35;;;3.10;;
16878;SDS011;8556;52.218;9.884;2023-07-13T02:19:52;5.10;;;2.95;;
16878;SDS011;8556;52.218;9.884;2023-07-13T02:22:19;5.50;;;3.53;;
16878;SDS011;8556;52.218;9.884;2023-07-13T02:24:46;4.85;;;2.97;;
16878;SDS011;8556;52.218;9.884;2023-07-13T02:27:14;4.32;;;3.00;;
16878;SDS011;8556;52.218;9.884;2023-07-13T02:29:42;7.72;;;4.80;;
16878;SDS011;8556;52.218;9.884;2023-07-13T02:32:09;6.07;;;4.00;;
16878;SDS011;8556;52.218;9.884;2023-07-13T02:34:36;6.78;;;4.65;;
16878;SDS011;8556;52.218;9.884;2023-07-13T02:37:03;4.72;;;3.20;;
16878;SDS011;8556;52.218;9.884;2023-07-13T02:39:30;5.10;;;3.20;;
16878;SDS011;8556;52.218;9.884;2023-07-13T02:41:58;4.57;;;3.03;;
16878;SDS011;8556;52.218;9.884;2023-07-13T02:44:25;4.75;;;3.20;;
16878;SDS011;8556;52.218;9.884;2023-07-13T02:46:53;5.07;;;3.15;;
16878;SDS011;8556;52.218;9.884;2023-07-13T02:49:20;5.00;;;3.30;;
16878;SDS011;8556;52.218;9.884;2023-07-13T02:51:47;8.88;;;4.00;;
16878;SDS011;8556;52.218;9.884;2023-07-13T02:54:14;3.85;;;3.50;;
16878;SDS011;8556;52.218;9.884;2023-07-13T02:56:41;3.97;;;3.20;;
16878;SDS011;8556;52.218;9.884;2023-07-13T02:59:08;3.67;;;3.20;;
16878;SDS011;8556;52.218;9.884;2023-07-13T03:01:35;6.55;;;3.10;;
16878;SDS011;8556;52.218;9.884;2023-07-13T03:04:03;6.53;;;3.30;;
16878;SDS011;8556;52.218;9.884;2023-07-13T03:06:30;5.18;;;2.88;;
16878;SDS011;8556;52.218;9.884;2023-07-13T03:08:58;4.78;;;3.03;;
16878;SDS011;8556;52.218;9.884;2023-07-13T03:11:26;4.47;;;3.28;;
16878;SDS011;8556;52.218;9.884;2023-07-13T03:13:53;4.13;;;3.08;;
16878;SDS011;8556;52.218;9.884;2023-07-13T03:16:20;4.20;;;3.22;;
16878;SDS011;8556;52.218;9.884;2023-07-13T03:18:47;3.80;;;3.10;;
16878;SDS011;8556;52.218;9.884;2023-07-13T03:21:15;5.32;;;3.00;;
16878;SDS011;8556;52.218;9.884;2023-07-13T03:23:43;4.30;;;3.22;;
16878;SDS011;8556;52.218;9.884;2023-07-13T03:26:10;6.80;;;3.13;;
16878;SDS011;8556;52.218;9.884;2023-07-13T03:28:39;6.95;;;3.42;;
16878;SDS011;8556;52.218;9.884;2023-07-13T03:31:08;8.93;;;4.95;;
16878;SDS011;8556;52.218;9.884;2023-07-13T03:33:36;4.07;;;3.30;;
16878;SDS011;8556;52.218;9.884;2023-07-13T03:36:03;6.70;;;3.90;;
16878;SDS011;8556;52.218;9.884;2023-07-13T03:38:32;7.45;;;3.42;;
16878;SDS011;8556;52.218;9.884;2023-07-13T03:40:59;5.15;;;3.20;;
16878;SDS011;8556;52.218;9.884;2023-07-13T03:43:26;7.78;;;3.30;;
16878;SDS011;8556;52.218;9.884;2023-07-13T03:45:53;6.30;;;3.28;;
16878;SDS011;8556;52.218;9.884;2023-07-13T03:48:21;5.20;;;3.25;;
16878;SDS011;8556;52.218;9.884;2023-07-13T03:50:48;5.35;;;2.90;;
16878;SDS011;8556;52.218;9.884;2023-07-13T03:53:15;4.53;;;3.05;;
16878;SDS011;8556;52.218;9.884;2023-07-13T03:55:44;6.15;;;3.50;;
16878;SDS011;8556;52.218;9.884;2023-07-13T03:58:28;5.32;;;3.05;;
16878;SDS011;8556;52.218;9.884;2023-07-13T04:00:57;3.90;;;2.97;;
16878;SDS011;8556;52.218;9.884;2023-07-13T04:03:25;4.75;;;2.92;;
16878;SDS011;8556;52.218;9.884;2023-07-13T04:05:53;4.75;;;3.10;;
16878;SDS011;8556;52.218;9.884;2023-07-13T04:08:25;7.53;;;3.00;;
16878;SDS011;8556;52.218;9.884;2023-07-13T04:10:54;5.47;;;3.10;;
16878;SDS011;8556;52.218;9.884;2023-07-13T04:13:21;3.75;;;2.70;;
16878;SDS011;8556;52.218;9.884;2023-07-13T04:15:48;4.30;;;3.20;;
16878;SDS011;8556;52.218;9.884;2023-07-13T04:18:16;3.10;;;2.80;;
16878;SDS011;8556;52.218;9.884;2023-07-13T04:20:43;5.57;;;3.10;;
16878;SDS011;8556;52.218;9.884;2023-07-13T04:23:10;6.40;;;3.10;;
16878;SDS011;8556;52.218;9.884;2023-07-13T04:25:37;3.35;;;2.70;;
16878;SDS011;8556;52.218;9.884;2023-07-13T04:28:05;8.23;;;3.17;;
16878;SDS011;8556;52.218;9.884;2023-07-13T04:30:32;3.22;;;2.60;;
16878;SDS011;8556;52.218;9.884;2023-07-13T04:32:59;3.00;;;2.70;;
16878;SDS011;8556;52.218;9.884;2023-07-13T04:35:26;4.55;;;2.63;;
16878;SDS011;8556;52.218;9.884;2023-07-13T04:37:53;4.70;;;2.42;;
16878;SDS011;8556;52.218;9.884;2023-07-13T04:40:20;5.35;;;2.42;;
16878;SDS011;8556;52.218;9.884;2023-07-13T04:42:47;4.50;;;2.63;;
16878;SDS011;8556;52.218;9.884;2023-07-13T04:45:15;4.70;;;2.75;;
16878;SDS011;8556;52.218;9.884;2023-07-13T04:47:42;4.95;;;2.60;;
16878;SDS011;8556;52.218;9.884;2023-07-13T04:50:12;7.18;;;2.60;;
16878;SDS011;8556;52.218;9.884;2023-07-13T04:52:45;4.82;;;2.83;;
16878;SDS011;8556;52.218;9.884;2023-07-13T04:55:11;4.97;;;2.78;;
16878;SDS011;8556;52.218;9.884;2023-07-13T04:57:38;3.65;;;2.60;;
16878;SDS011;8556;52.218;9.884;2023-07-13T05:00:06;6.07;;;3.10;;
16878;SDS011;8556;52.218;9.884;2023-07-13T05:02:37;3.10;;;2.40;;
16878;SDS011;8556;52.218;9.884;2023-07-13T05:05:05;4.57;;;2.67;;
16878;SDS011;8556;52.218;9.884;2023-07-13T05:07:33;10.60;;;3.83;;
16878;SDS011;8556;52.218;9.884;2023-07-13T05:10:00;7.38;;;3.05;;
16878;SDS011;8556;52.218;9.884;2023-07-13T05:12:28;9.00;;;3.08;;
16878;SDS011;8556;52.218;9.884;2023-07-13T05:14:55;6.75;;;2.88;;
16878;SDS011;8556;52.218;9.884;2023-07-13T05:17:21;8.20;;;3.15;;
16878;SDS011;8556;52.218;9.884;2023-07-13T05:19:50;7.05;;;2.97;;
16878;SDS011;8556;52.218;9.884;2023-07-13T05:22:17;4.55;;;3.00;;
16878;SDS011;8556;52.218;9.884;2023-07-13T05:24:44;5.43;;;2.47;;
16878;SDS011;8556;52.218;9.884;2023-07-13T05:27:10;6.25;;;2.80;;
16878;SDS011;8556;52.218;9.884;2023-07-13T05:29:37;5.22;;;2.47;;
16878;SDS011;8556;52.218;9.884;2023-07-13T05:32:04;5.85;;;2.67;;
16878;SDS011;8556;52.218;9.884;2023-07-13T05:34:31;6.82;;;3.05;;
16878;SDS011;8556;52.218;9.884;2023-07-13T05:36:59;6.03;;;3.17;;
16878;SDS011;8556;52.218;9.884;2023-07-13T05:39:26;5.15;;;2.53;;
16878;SDS011;8556;52.218;9.884;2023-07-13T05:41:54;7.18;;;2.58;;
16878;SDS011;8556;52.218;9.884;2023-07-13T05:44:20;6.30;;;2.60;;
16878;SDS011;8556;52.218;9.884;2023-07-13T05:46:47;6.70;;;2.95;;
16878;SDS011;8556;52.218;9.884;2023-07-13T05:49:14;4.45;;;2.58;;
16878;SDS011;8556;52.218;9.884;2023-07-13T05:51:41;9.63;;;2.90;;
16878;SDS011;8556;52.218;9.884;2023-07-13T05:54:09;8.50;;;2.80;;
16878;SDS011;8556;52.218;9.884;2023-07-13T05:56:36;7.38;;;2.92;;
16878;SDS011;8556;52.218;9.884;2023-07-13T05:59:02;5.07;;;2.60;;
16878;SDS011;8556;52.218;9.884;2023-07-13T06:01:29;4.88;;;2.38;;
16878;SDS011;8556;52.218;9.884;2023-07-13T06:03:57;7.00;;;2.90;;
16878;SDS011;8556;52.218;9.884;2023-07-13T06:06:23;3.00;;;2.22;;
16878;SDS011;8556;52.218;9.884;2023-07-13T06:08:50;7.00;;;2.95;;
16878;SDS011;8556;52.218;9.884;2023-07-13T06:11:19;3.78;;;2.38;;
16878;SDS011;8556;52.218;9.884;2023-07-13T06:13:48;6.20;;;3.15;;
16878;SDS011;8556;52.218;9.884;2023-07-13T06:16:15;4.57;;;2.53;;
16878;SDS011;8556;52.218;9.884;2023-07-13T06:18:43;6.38;;;2.75;;
16878;SDS011;8556;52.218;9.884;2023-07-13T06:21:10;6.95;;;2.53;;
16878;SDS011;8556;52.218;9.884;2023-07-13T06:23:39;8.38;;;3.22;;
16878;SDS011;8556;52.218;9.884;2023-07-13T06:26:05;4.93;;;2.78;;
16878;SDS011;8556;52.218;9.884;2023-07-13T06:28:34;6.45;;;3.00;;
16878;SDS011;8556;52.218;9.884;2023-07-13T06:31:01;9.38;;;2.85;;
16878;SDS011;8556;52.218;9.884;2023-07-13T06:33:30;8.40;;;2.90;;
16878;SDS011;8556;52.218;9.884;2023-07-13T06:35:58;6.75;;;2.80;;
16878;SDS011;8556;52.218;9.884;2023-07-13T06:38:24;9.15;;;3.00;;
16878;SDS011;8556;52.218;9.884;2023-07-13T06:40:51;7.07;;;3.10;;
16878;SDS011;8556;52.218;9.884;2023-07-13T06:43:18;7.32;;;2.78;;
16878;SDS011;8556;52.218;9.884;2023-07-13T06:45:47;5.95;;;2.50;;
16878;SDS011;8556;52.218;9.884;2023-07-13T06:48:15;5.20;;;2.90;;
16878;SDS011;8556;52.218;9.884;2023-07-13T06:50:42;6.30;;;2.40;;
16878;SDS011;8556;52.218;9.884;2023-07-13T06:53:09;5.97;;;2.58;;
16878;SDS011;8556;52.218;9.884;2023-07-13T06:55:36;7.25;;;2.60;;
16878;SDS011;8556;52.218;9.884;2023-07-13T06:58:03;7.18;;;2.47;;
16878;SDS011;8556;52.218;9.884;2023-07-13T07:00:30;9.07;;;2.58;;
16878;SDS011;8556;52.218;9.884;2023-07-13T07:02:59;7.78;;;2.50;;
16878;SDS011;8556;52.218;9.884;2023-07-13T07:05:25;6.93;;;2.17;;
16878;SDS011;8556;52.218;9.884;2023-07-13T07:07:54;4.53;;;2.03;;
16878;SDS011;8556;52.218;9.884;2023-07-13T07:10:21;6.40;;;2.22;;
16878;SDS011;8556;52.218;9.884;2023-07-13T07:12:48;2.70;;;1.92;;
16878;SDS011;8556;52.218;9.884;2023-07-13T07:15:15;5.90;;;2.45;;
16878;SDS011;8556;52.218;9.884;2023-07-13T07:17:43;4.38;;;2.00;;
16878;SDS011;8556;52.218;9.884;2023-07-13T07:20:11;5.63;;;2.13;;
16878;SDS011;8556;52.218;9.884;2023-07-13T07:22:38;6.97;;;2.13;;
16878;SDS011;8556;52.218;9.884;2023-07-13T07:25:05;3.92;;;2.10;;
16878;SDS011;8556;52.218;9.884;2023-07-13T07:27:33;3.25;;;1.98;;
16878;SDS011;8556;52.218;9.884;2023-07-13T07:30:00;6.15;;;1.90;;
16878;SDS011;8556;52.218;9.884;2023-07-13T07:32:28;4.75;;;2.20;;
16878;SDS011;8556;52.218;9.884;2023-07-13T07:34:55;4.15;;;2.20;;
16878;SDS011;8556;52.218;9.884;2023-07-13T07:37:24;4.75;;;2.10;;
16878;SDS011;8556;52.218;9.884;2023-07-13T07:39:51;3.00;;;1.90;;
16878;SDS011;8556;52.218;9.884;2023-07-13T07:42:18;5.38;;;2.28;;
16878;SDS011;8556;52.218;9.884;2023-07-13T07:44:45;5.55;;;1.85;;
16878;SDS011;8556;52.218;9.884;2023-07-13T07:47:12;3.75;;;1.67;;
16878;SDS011;8556;52.218;9.884;2023-07-13T07:49:39;5.57;;;2.45;;
16878;SDS011;8556;52.218;9.884;2023-07-13T07:52:06;4.63;;;1.85;;
16878;SDS011;8556;52.218;9.884;2023-07-13T07:54:35;7.05;;;2.35;;
16878;SDS011;8556;52.218;9.884;2023-07-13T07:57:02;3.08;;;1.70;;
16878;SDS011;8556;52.218;9.884;2023-07-13T07:59:29;5.68;;;2.03;;
16878;SDS011;8556;52.218;9.884;2023-07-13T08:01:56;7.47;;;1.80;;
16878;SDS011;8556;52.218;9.884;2023-07-13T08:04:23;5.63;;;2.20;;
16878;SDS011;8556;52.218;9.884;2023-07-13T08:06:50;5.97;;;1.77;;
16878;SDS011;8556;52.218;9.884;2023-07-13T08:09:16;4.25;;;2.15;;
16878;SDS011;8556;52.218;9.884;2023-07-13T08:11:45;4.85;;;1.80;;
16878;SDS011;8556;52.218;9.884;2023-07-13T08:14:12;6.65;;;1.95;;
16878;SDS011;8556;52.218;9.884;2023-07-13T08:16:39;4.82;;;1.92;;
16878;SDS011;8556;52.218;9.884;2023-07-13T08:19:06;7.55;;;2.30;;
16878;SDS011;8556;52.218;9.884;2023-07-13T08:21:33;4.30;;;2.55;;
16878;SDS011;8556;52.218;9.884;2023-07-13T08:24:00;5.90;;;2.13;;
16878;SDS011;8556;52.218;9.884;2023-07-13T08:26:27;7.35;;;2.25;;
16878;SDS011;8556;52.218;9.884;2023-07-13T08:28:55;4.60;;;1.90;;
16878;SDS011;8556;52.218;9.884;2023-07-13T08:31:22;5.00;;;1.90;;
16878;SDS011;8556;52.218;9.884;2023-07-13T08:33:49;5.43;;;1.85;;
16878;SDS011;8556;52.218;9.884;2023-07-13T08:36:16;9.02;;;2.13;;
16878;SDS011;8556;52.218;9.884;2023-07-13T08:38:43;4.78;;;1.85;;
16878;SDS011;8556;52.218;9.884;2023-07-13T08:41:11;4.47;;;2.00;;
16878;SDS011;8556;52.218;9.884;2023-07-13T08:43:39;5.30;;;2.05;;
16878;SDS011;8556;52.218;9.884;2023-07-13T08:46:12;3.45;;;1.90;;
16878;SDS011;8556;52.218;9.884;2023-07-13T08:48:43;4.00;;;2.08;;
16878;SDS011;8556;52.218;9.884;2023-07-13T08:51:19;3.17;;;1.60;;
16878;SDS011;8556;52.218;9.884;2023-07-13T08:53:54;5.50;;;2.10;;
16878;SDS011;8556;52.218;9.884;2023-07-13T08:56:24;5.32;;;2.10;;
16878;SDS011;8556;52.218;9.884;2023-07-13T08:58:55;6.32;;;1.90;;
16878;SDS011;8556;52.218;9.884;2023-07-13T09:01:28;5.28;;;2.03;;
16878;SDS011;8556;52.218;9.884;2023-07-13T09:03:59;7.90;;;2.08;;
16878;SDS011;8556;52.218;9.884;2023-07-13T09:06:34;5.05;;;2.45;;
16878;SDS011;8556;52.218;9.884;2023-07-13T09:09:18;3.47;;;2.03;;
16878;SDS011;8556;52.218;9.884;2023-07-13T09:11:55;3.50;;;2.03;;
16878;SDS011;8556;52.218;9.884;2023-07-13T09:14:30;5.25;;;2.17;;
16878;SDS011;8556;52.218;9.884;2023-07-13T09:17:03;7.22;;;2.33;;
16878;SDS011;8556;52.218;9.884;2023-07-13T09:19:34;3.90;;;2.08;;
16878;SDS011;8556;52.218;9.884;2023-07-13T09:22:02;8.25;;;2.83;;
16878;SDS011;8556;52.218;9.884;2023-07-13T09:24:35;4.75;;;2.20;;
16878;SDS011;8556;52.218;9.884;2023-07-13T09:27:05;4.63;;;2.35;;
16878;SDS011;8556;52.218;9.884;2023-07-13T09:29:42;5.88;;;2.13;;
16878;SDS011;8556;52.218;9.884;2023-07-13T09:32:15;5.32;;;2.30;;
16878;SDS011;8556;52.218;9.884;2023-07-13T09:34:50;4.65;;;2.30;;
16878;SDS011;8556;52.218;9.884;2023-07-13T09:37:18;4.57;;;2.55;;
16878;SDS011;8556;52.218;9.884;2023-07-13T09:39:46;4.63;;;2.30;;
16878;SDS011;8556;52.218;9.884;2023-07-13T09:42:16;4.10;;;2.53;;
16878;SDS011;8556;52.218;9.884;2023-07-13T09:44:51;2.45;;;2.25;;
16878;SDS011;8556;52.218;9.884;2023-07-13T09:47:21;5.10;;;2.78;;
16878;SDS011;8556;52.218;9.884;2023-07-13T09:49:54;4.50;;;2.15;;
16878;SDS011;8556;52.218;9.884;2023-07-13T09:52:23;3.75;;;2.20;;
16878;SDS011;8556;52.218;9.884;2023-07-13T09:54:52;3.50;;;2.30;;
16878;SDS011;8556;52.218;9.884;2023-07-13T09:57:24;5.95;;;2.15;;
16878;SDS011;8556;52.218;9.884;2023-07-13T09:59:53;5.65;;;2.55;;
16878;SDS011;8556;52.218;9.884;2023-07-13T10:02:26;2.95;;;2.28;;
16878;SDS011;8556;52.218;9.884;2023-07-13T10:04:58;5.15;;;2.10;;
16878;SDS011;8556;52.218;9.884;2023-07-13T10:07:26;5.53;;;2.38;;
16878;SDS011;8556;52.218;9.884;2023-07-13T10:09:54;5.00;;;2.28;;
16878;SDS011;8556;52.218;9.884;2023-07-13T10:12:22;5.03;;;2.45;;
16878;SDS011;8556;52.218;9.884;2023-07-13T10:14:50;4.55;;;2.30;;
16878;SDS011;8556;52.218;9.884;2023-07-13T10:17:24;3.83;;;2.22;;
16878;SDS011;8556;52.218;9.884;2023-07-13T10:19:56;5.13;;;2.22;;
16878;SDS011;8556;52.218;9.884;2023-07-13T10:22:27;5.68;;;2.10;;
16878;SDS011;8556;52.218;9.884;2023-07-13T10:25:07;6.43;;;2.58;;
16878;SDS011;8556;52.218;9.884;2023-07-13T10:27:42;4.95;;;2.08;;
16878;SDS011;8556;52.218;9.884;2023-07-13T10:30:12;1.73;;;1.63;;
16878;SDS011;8556;52.218;9.884;2023-07-13T10:32:44;5.30;;;2.08;;
16878;SDS011;8556;52.218;9.884;2023-07-13T10:35:13;5.55;;;2.40;;
16878;SDS011;8556;52.218;9.884;2023-07-13T10:37:44;6.07;;;2.30;;
16878;SDS011;8556;52.218;9.884;2023-07-13T10:40:16;3.95;;;2.10;;
16878;SDS011;8556;52.218;9.884;2023-07-13T10:42:46;6.25;;;2.13;;
16878;SDS011;8556;52.218;9.884;2023-07-13T10:45:17;5.95;;;2.55;;
16878;SDS011;8556;52.218;9.884;2023-07-13T10:47:47;4.13;;;2.03;;
16878;SDS011;8556;52.218;9.884;2023-07-13T10:50:19;2.95;;;1.55;;
16878;SDS011;8556;52.218;9.884;2023-07-13T10:52:50;2.28;;;1.60;;
16878;SDS011;8556;52.218;9.884;2023-07-13T10:55:35;4.43;;;1.90;;
16878;SDS011;8556;52.218;9.884;2023-07-13T10:58:11;4.50;;;1.90;;
16878;SDS011;8556;52.218;9.884;2023-07-13T11:00:49;5.18;;;1.75;;
16878;SDS011;8556;52.218;9.884;2023-07-13T11:03:23;2.38;;;1.60;;
16878;SDS011;8556;52.218;9.884;2023-07-13T11:06:03;3.85;;;1.98;;
16878;SDS011;8556;52.218;9.884;2023-07-13T11:08:35;4.25;;;2.25;;
16878;SDS011;8556;52.218;9.884;2023-07-13T11:11:03;2.90;;;2.00;;
16878;SDS011;8556;52.218;9.884;2023-07-13T11:14:01;4.93;;;1.92;;
16878;SDS011;8556;52.218;9.884;2023-07-13T11:16:37;5.05;;;2.20;;
16878;SDS011;8556;52.218;9.884;2023-07-13T11:19:27;4.53;;;1.92;;
16878;SDS011;8556;52.218;9.884;2023-07-13T11:22:13;2.45;;;1.77;;
16878;SDS011;8556;52.218;9.884;2023-07-13T11:24:53;3.63;;;1.67;;
16878;SDS011;8556;52.218;9.884;2023-07-13T11:30:19;3.10;;;1.63;;
16878;SDS011;8556;52.218;9.884;2023-07-13T11:32:51;3.03;;;1.60;;
16878;SDS011;8556;52.218;9.884;2023-07-13T11:35:32;3.90;;;2.30;;
16878;SDS011;8556;52.218;9.884;2023-07-13T11:38:03;4.22;;;2.13;;
16878;SDS011;8556;52.218;9.884;2023-07-13T11:40:38;3.47;;;2.30;;
16878;SDS011;8556;52.218;9.884;2023-07-13T11:43:06;4.68;;;2.30;;
16878;SDS011;8556;52.218;9.884;2023-07-13T11:45:33;3.35;;;2.00;;
16878;SDS011;8556;52.218;9.884;2023-07-13T11:48:01;4.03;;;2.10;;
16878;SDS011;8556;52.218;9.884;2023-07-13T11:50:28;3.08;;;1.98;;
16878;SDS011;8556;52.218;9.884;2023-07-13T11:52:57;3.92;;;1.90;;
16878;SDS011;8556;52.218;9.884;2023-07-13T11:55:25;4.15;;;1.95;;
16878;SDS011;8556;52.218;9.884;2023-07-13T11:57:54;2.40;;;2.20;;
16878;SDS011;8556;52.218;9.884;2023-07-13T12:00:25;2.85;;;2.00;;
16878;SDS011;8556;52.218;9.884;2023-07-13T12:02:55;3.28;;;2.15;;
16878;SDS011;8556;52.218;9.884;2023-07-13T12:05:24;4.00;;;2.10;;
16878;SDS011;8556;52.218;9.884;2023-07-13T12:07:51;3.10;;;2.17;;
16878;SDS011;8556;52.218;9.884;2023-07-13T12:10:21;3.33;;;2.30;;
16878;SDS011;8556;52.218;9.884;2023-07-13T12:12:52;5.00;;;2.10;;
16878;SDS011;8556;52.218;9.884;2023-07-13T12:15:20;2.08;;;1.80;;
16878;SDS011;8556;52.218;9.884;2023-07-13T12:17:48;4.18;;;2.38;;
16878;SDS011;8556;52.218;9.884;2023-07-13T12:20:20;2.55;;;1.80;;
16878;SDS011;8556;52.218;9.884;2023-07-13T12:22:50;3.60;;;2.40;;
16878;SDS011;8556;52.218;9.884;2023-07-13T12:25:18;4.25;;;2.45;;
16878;SDS011;8556;52.218;9.884;2023-07-13T12:27:47;3.75;;;2.22;;
16878;SDS011;8556;52.218;9.884;2023-07-13T12:30:22;3.58;;;2.15;;
16878;SDS011;8556;52.218;9.884;2023-07-13T12:32:58;5.13;;;2.42;;
16878;SDS011;8556;52.218;9.884;2023-07-13T12:35:28;4.97;;;2.70;;
16878;SDS011;8556;52.218;9.884;2023-07-13T12:38:00;4.43;;;2.63;;
16878;SDS011;8556;52.218;9.884;2023-07-13T12:40:29;3.03;;;2.15;;
16878;SDS011;8556;52.218;9.884;2023-07-13T12:43:00;4.68;;;2.15;;
16878;SDS011;8556;52.218;9.884;2023-07-13T12:45:29;3.38;;;2.00;;
16878;SDS011;8556;52.218;9.884;2023-07-13T12:47:57;5.38;;;2.22;;
16878;SDS011;8556;52.218;9.884;2023-07-13T12:50:30;2.20;;;2.00;;
16878;SDS011;8556;52.218;9.884;2023-07-13T12:53:03;4.47;;;2.28;;
16878;SDS011;8556;52.218;9.884;2023-07-13T12:55:39;4.38;;;2.00;;
16878;SDS011;8556;52.218;9.884;2023-07-13T12:58:13;3.85;;;2.28;;
16878;SDS011;8556;52.218;9.884;2023-07-13T13:00:48;9.40;;;3.00;;
16878;SDS011;8556;52.218;9.884;2023-07-13T13:03:20;3.30;;;2.22;;
16878;SDS011;8556;52.218;9.884;2023-07-13T13:05:56;2.85;;;2.13;;
16878;SDS011;8556;52.218;9.884;2023-07-13T13:08:24;5.05;;;2.30;;
16878;SDS011;8556;52.218;9.884;2023-07-13T13:10:51;2.65;;;2.45;;
16878;SDS011;8556;52.218;9.884;2023-07-13T13:13:20;3.45;;;2.60;;
16878;SDS011;8556;52.218;9.884;2023-07-13T13:15:46;3.08;;;2.20;;
16878;SDS011;8556;52.218;9.884;2023-07-13T13:18:17;2.90;;;2.50;;
16878;SDS011;8556;52.218;9.884;2023-07-13T13:20:44;2.75;;;2.50;;
16878;SDS011;8556;52.218;9.884;2023-07-13T13:23:12;6.10;;;3.40;;
16878;SDS011;8556;52.218;9.884;2023-07-13T13:25:40;5.07;;;3.33;;
16878;SDS011;8556;52.218;9.884;2023-07-13T13:28:11;4.60;;;3.08;;
16878;SDS011;8556;52.218;9.884;2023-07-13T13:30:42;3.70;;;3.05;;
16878;SDS011;8556;52.218;9.884;2023-07-13T13:33:10;5.50;;;3.03;;
16878;SDS011;8556;52.218;9.884;2023-07-13T13:35:38;6.25;;;2.70;;
16878;SDS011;8556;52.218;9.884;2023-07-13T13:38:09;3.90;;;2.65;;
16878;SDS011;8556;52.218;9.884;2023-07-13T13:40:39;3.42;;;3.05;;
16878;SDS011;8556;52.218;9.884;2023-07-13T13:43:13;5.45;;;2.97;;
16878;SDS011;8556;52.218;9.884;2023-07-13T13:45:43;3.90;;;3.08;;
16878;SDS011;8556;52.218;9.884;2023-07-13T13:48:13;3.15;;;2.95;;
16878;SDS011;8556;52.218;9.884;2023-07-13T13:50:42;10.07;;;3.40;;
16878;SDS011;8556;52.218;9.884;2023-07-13T13:53:12;7.05;;;3.10;;
16878;SDS011;8556;52.218;9.884;2023-07-13T13:55:39;3.42;;;2.45;;
16878;SDS011;8556;52.218;9.884;2023-07-13T13:58:07;3.88;;;2.70;;
16878;SDS011;8556;52.218;9.884;2023-07-13T14:00:34;3.33;;;2.83;;
16878;SDS011;8556;52.218;9.884;2023-07-13T14:03:03;5.75;;;3.75;;
16878;SDS011;8556;52.218;9.884;2023-07-13T14:05:30;4.00;;;3.60;;
16878;SDS011;8556;52.218;9.884;2023-07-13T14:07:57;4.75;;;3.45;;
16878;SDS011;8556;52.218;9.884;2023-07-13T14:10:25;7.22;;;3.10;;
16878;SDS011;8556;52.218;9.884;2023-07-13T14:12:53;4.55;;;3.40;;
16878;SDS011;8556;52.218;9.884;2023-07-13T14:15:23;4.72;;;2.75;;
16878;SDS011;8556;52.218;9.884;2023-07-13T14:17:52;3.00;;;1.90;;
16878;SDS011;8556;52.218;9.884;2023-07-13T14:20:21;4.00;;;1.85;;
16878;SDS011;8556;52.218;9.884;2023-07-13T14:22:49;3.20;;;1.95;;
16878;SDS011;8556;52.218;9.884;2023-07-13T14:25:17;7.03;;;3.22;;
16878;SDS011;8556;52.218;9.884;2023-07-13T14:27:46;5.00;;;2.40;;
16878;SDS011;8556;52.218;9.884;2023-07-13T14:30:19;3.50;;;2.42;;
16878;SDS011;8556;52.218;9.884;2023-07-13T14:32:47;3.22;;;2.40;;
16878;SDS011;8556;52.218;9.884;2023-07-13T14:35:15;4.30;;;2.33;;
16878;SDS011;8556;52.218;9.884;2023-07-13T14:37:46;4.63;;;2.45;;
16878;SDS011;8556;52.218;9.884;2023-07-13T14:40:14;2.55;;;2.30;;
16878;SDS011;8556;52.218;9.884;2023-07-13T14:42:41;3.53;;;2.28;;
16878;SDS011;8556;52.218;9.884;2023-07-13T14:45:12;5.88;;;2.65;;
16878;SDS011;8556;52.218;9.884;2023-07-13T14:47:40;2.50;;;2.30;;
16878;SDS011;8556;52.218;9.884;2023-07-13T14:50:12;6.75;;;3.17;;
16878;SDS011;8556;52.218;9.884;2023-07-13T14:52:41;4.93;;;2.70;;
16878;SDS011;8556;52.218;9.884;2023-07-13T14:55:11;4.68;;;2.95;;
16878;SDS011;8556;52.218;9.884;2023-07-13T14:57:39;3.72;;;2.38;;
16878;SDS011;8556;52.218;9.884;2023-07-13T15:00:12;4.03;;;2.40;;
16878;SDS011;8556;52.218;9.884;2023-07-13T15:02:40;4.45;;;2.10;;
16878;SDS011;8556;52.218;9.884;2023-07-13T15:05:13;2.35;;;2.10;;
16878;SDS011;8556;52.218;9.884;2023-07-13T15:07:41;3.03;;;1.92;;
16878;SDS011;8556;52.218;9.884;2023-07-13T15:10:17;2.15;;;1.70;;
16878;SDS011;8556;52.218;9.884;2023-07-13T15:12:46;2.30;;;2.10;;
16878;SDS011;8556;52.218;9.884;2023-07-13T15:15:13;1.83;;;1.67;;
16878;SDS011;8556;52.218;9.884;2023-07-13T15:17:41;3.13;;;1.95;;